Time;durP1;ratioP1;P1;durP2;ratioP2;P2;SDS_P1;SDS_P2;PMS_P1;PMS_P2;Temp;Humidity;BMP_temperature;BMP_pressure;BME280_temperature;BME280_humidity;BME280_pressure;Samples;Min_cycle;Max_cycle;Signal;HPM_P1;HPM_P2
2021/08/12 00:00:36;;;;;;;33.83;28.10;;;;;;;;;;5034817;28;20531;-84
2021/08/12 00:03:01;;;;;;;38.25;27.00;;;;;;;;;;5029115;28;20025;-80
2021/08/12 00:05:27;;;;;;;34.42;26.35;;;;;;;;;;5033910;28;20025;-82
2021/08/12 00:07:52;;;;;;;30.45;23.77;;;;;;;;;;5034115;28;20387;-81
2021/08/12 00:10:24;;;;;;;31.95;23.60;;;;;;;;;;5033729;28;20029;-82
2021/08/12 00:12:49;;;;;;;35.92;21.77;;;;;;;;;;5033836;28;20056;-81
2021/08/12 00:15:15;;;;;;;28.20;21.15;;;;;;;;;;5034017;28;20108;-82
2021/08/12 00:17:40;;;;;;;26.65;19.17;;;;;;;;;;5034649;28;20048;-82
2021/08/12 00:20:07;;;;;;;30.27;19.02;;;;;;;;;;5029513;28;20043;-80
2021/08/12 00:22:33;;;;;;;29.60;19.63;;;;;;;;;;5033859;28;20041;-82
2021/08/12 00:24:58;;;;;;;25.70;17.45;;;;;;;;;;5035282;28;20037;-83
2021/08/12 00:27:24;;;;;;;23.67;18.75;;;;;;;;;;5033995;28;20542;-83
2021/08/12 00:29:49;;;;;;;26.73;18.65;;;;;;;;;;5035361;28;20035;-83
2021/08/12 00:32:15;;;;;;;24.65;20.70;;;;;;;;;;5032815;28;20040;-79
2021/08/12 00:34:41;;;;;;;29.50;20.25;;;;;;;;;;5034587;28;20029;-82
2021/08/12 00:37:07;;;;;;;26.50;20.63;;;;;;;;;;5016485;28;20076;-83
2021/08/12 00:39:32;;;;;;;28.95;20.80;;;;;;;;;;5033796;28;20045;-82
2021/08/12 00:41:58;;;;;;;28.65;22.85;;;;;;;;;;5033785;28;20040;-81
2021/08/12 00:44:24;;;;;;;36.60;27.38;;;;;;;;;;5033738;28;20064;-81
2021/08/12 00:46:50;;;;;;;31.83;27.45;;;;;;;;;;5033944;28;20030;-81
2021/08/12 00:49:16;;;;;;;35.67;30.50;;;;;;;;;;5015426;28;20048;-82
2021/08/12 00:51:42;;;;;;;38.08;28.52;;;;;;;;;;5032636;28;20471;-83
2021/08/12 00:54:08;;;;;;;32.67;28.08;;;;;;;;;;5017478;28;20037;-81
2021/08/12 00:56:49;;;;;;;37.58;26.23;;;;;;;;;;5034007;28;20040;-80
2021/08/12 00:59:36;;;;;;;32.92;26.58;;;;;;;;;;5036251;28;20045;-81
2021/08/12 01:02:15;;;;;;;26.60;22.58;;;;;;;;;;5036404;28;20082;-81
2021/08/12 01:04:45;;;;;;;25.30;21.77;;;;;;;;;;5036484;28;20156;-79
2021/08/12 01:07:26;;;;;;;34.90;22.48;;;;;;;;;;5036024;28;20036;-80
2021/08/12 01:10:05;;;;;;;27.80;21.13;;;;;;;;;;5018110;28;20068;-81
2021/08/12 01:12:32;;;;;;;23.55;20.05;;;;;;;;;;5036458;28;20049;-82
2021/08/12 01:15:00;;;;;;;25.90;20.38;;;;;;;;;;5036671;28;20400;-81
2021/08/12 01:17:29;;;;;;;21.45;17.98;;;;;;;;;;5018228;28;20540;-82
2021/08/12 01:20:00;;;;;;;26.27;20.60;;;;;;;;;;5036384;28;20086;-82
2021/08/12 01:22:26;;;;;;;29.27;19.65;;;;;;;;;;5035601;28;20060;-81
2021/08/12 01:25:00;;;;;;;29.05;19.30;;;;;;;;;;5035955;28;20033;-82
2021/08/12 01:27:29;;;;;;;31.00;19.92;;;;;;;;;;5037146;28;20022;-81
2021/08/12 01:29:58;;;;;;;23.40;20.58;;;;;;;;;;5019035;28;20028;-82
2021/08/12 01:32:28;;;;;;;31.73;22.20;;;;;;;;;;5039268;28;20022;-81
2021/08/12 01:35:15;;;;;;;26.70;21.92;;;;;;;;;;5037977;28;20365;-82
2021/08/12 01:37:44;;;;;;;31.20;22.92;;;;;;;;;;5021880;28;20132;-81
2021/08/12 01:40:11;;;;;;;32.85;25.70;;;;;;;;;;5016055;28;20045;-80
2021/08/12 01:42:39;;;;;;;35.25;26.20;;;;;;;;;;5016295;28;20029;-82
2021/08/12 01:45:06;;;;;;;35.03;27.05;;;;;;;;;;5016457;28;20061;-82
2021/08/12 01:47:32;;;;;;;33.20;25.80;;;;;;;;;;4999609;28;20084;-82
2021/08/12 01:49:58;;;;;;;38.65;27.55;;;;;;;;;;5017809;28;20028;-82
2021/08/12 01:52:28;;;;;;;39.80;29.92;;;;;;;;;;5035095;28;20029;-81
2021/08/12 01:54:55;;;;;;;39.88;30.85;;;;;;;;;;5017968;28;20075;-81
2021/08/12 01:57:20;;;;;;;36.50;30.77;;;;;;;;;;5036146;28;20408;-81
2021/08/12 01:59:47;;;;;;;38.97;31.33;;;;;;;;;;5036518;28;20044;-81
2021/08/12 02:02:16;;;;;;;33.45;28.30;;;;;;;;;;5035205;28;20475;-82
2021/08/12 02:04:42;;;;;;;35.88;29.95;;;;;;;;;;5035709;28;20044;-82
2021/08/12 02:07:09;;;;;;;39.35;28.15;;;;;;;;;;5038059;28;20108;-81
2021/08/12 02:09:35;;;;;;;38.40;29.77;;;;;;;;;;5038920;28;20033;-82
2021/08/12 02:12:05;;;;;;;40.72;30.42;;;;;;;;;;5043607;28;20469;-80
2021/08/12 02:14:34;;;;;;;35.08;29.23;;;;;;;;;;5043238;28;20037;-81
2021/08/12 02:17:00;;;;;;;34.05;27.27;;;;;;;;;;5036574;28;20036;-82
2021/08/12 02:19:25;;;;;;;35.67;25.27;;;;;;;;;;5035676;28;20042;-82
2021/08/12 02:21:56;;;;;;;33.78;26.13;;;;;;;;;;5035961;28;20026;-81
2021/08/12 02:24:40;;;;;;;32.63;25.88;;;;;;;;;;5035321;28;20029;-81
2021/08/12 02:27:09;;;;;;;33.17;27.02;;;;;;;;;;5035066;28;20033;-80
2021/08/12 02:29:34;;;;;;;30.55;25.75;;;;;;;;;;5035639;28;20117;-82
2021/08/12 02:32:04;;;;;;;31.30;23.38;;;;;;;;;;5036576;28;20432;-82
2021/08/12 02:34:30;;;;;;;29.33;23.55;;;;;;;;;;5035201;28;20555;-82
2021/08/12 02:36:56;;;;;;;25.13;21.90;;;;;;;;;;5035275;28;20119;-80
2021/08/12 02:39:24;;;;;;;32.80;23.08;;;;;;;;;;5022340;28;20037;-83
2021/08/12 02:41:49;;;;;;;27.67;21.92;;;;;;;;;;5037115;28;20029;-82
2021/08/12 02:44:16;;;;;;;28.13;20.77;;;;;;;;;;5036363;28;20503;-82
2021/08/12 02:46:42;;;;;;;30.65;21.80;;;;;;;;;;5034453;28;20033;-82
2021/08/12 02:49:08;;;;;;;27.15;20.73;;;;;;;;;;5034525;28;20099;-81
2021/08/12 02:51:35;;;;;;;24.63;21.23;;;;;;;;;;5034769;28;20083;-82
2021/08/12 02:54:02;;;;;;;24.05;19.80;;;;;;;;;;5034306;28;20116;-81
2021/08/12 02:56:29;;;;;;;27.92;19.65;;;;;;;;;;5033969;28;20044;-82
2021/08/12 02:58:55;;;;;;;22.92;19.95;;;;;;;;;;5034756;28;20511;-82
2021/08/12 03:01:21;;;;;;;22.17;19.20;;;;;;;;;;5034317;28;20029;-82
2021/08/12 03:03:47;;;;;;;20.15;18.08;;;;;;;;;;5034075;28;20029;-83
2021/08/12 03:06:17;;;;;;;18.63;16.63;;;;;;;;;;5034197;28;20155;-83
2021/08/12 03:08:45;;;;;;;22.13;18.17;;;;;;;;;;5015927;28;20527;-82
2021/08/12 03:11:13;;;;;;;21.85;18.85;;;;;;;;;;5034500;28;20025;-83
2021/08/12 03:13:40;;;;;;;20.98;17.98;;;;;;;;;;5034649;28;20037;-82
2021/08/12 03:16:06;;;;;;;23.13;18.35;;;;;;;;;;5034030;28;20408;-82
2021/08/12 03:18:32;;;;;;;23.67;18.70;;;;;;;;;;5033962;28;20041;-80
2021/08/12 03:21:04;;;;;;;25.52;20.30;;;;;;;;;;5033492;28;20428;-81
2021/08/12 03:23:30;;;;;;;23.85;20.42;;;;;;;;;;5033475;28;20084;-81
2021/08/12 03:25:56;;;;;;;27.70;20.73;;;;;;;;;;5034176;28;20033;-82
2021/08/12 03:28:21;;;;;;;25.23;19.42;;;;;;;;;;5016020;28;20049;-82
2021/08/12 03:30:47;;;;;;;29.52;20.27;;;;;;;;;;5033930;28;20029;-82
2021/08/12 03:33:13;;;;;;;25.08;19.80;;;;;;;;;;5016129;28;20022;-82
2021/08/12 03:35:39;;;;;;;25.60;19.35;;;;;;;;;;5033733;28;20135;-82
2021/08/12 03:38:04;;;;;;;21.75;19.50;;;;;;;;;;5033048;28;20132;-80
2021/08/12 03:40:30;;;;;;;21.42;19.13;;;;;;;;;;5032760;28;20041;-79
2021/08/12 03:42:55;;;;;;;19.98;17.80;;;;;;;;;;5032445;28;20503;-79
2021/08/12 03:45:21;;;;;;;24.27;19.15;;;;;;;;;;5032588;28;20199;-78
2021/08/12 03:47:47;;;;;;;23.08;18.58;;;;;;;;;;5032289;28;20033;-79
2021/08/12 03:50:13;;;;;;;25.08;18.35;;;;;;;;;;5032974;28;20032;-80
2021/08/12 03:52:40;;;;;;;22.27;17.73;;;;;;;;;;5033270;28;20060;-79
2021/08/12 03:55:07;;;;;;;23.40;17.70;;;;;;;;;;5033008;28;20029;-79
2021/08/12 03:57:33;;;;;;;21.58;18.00;;;;;;;;;;5032539;28;20037;-83
2021/08/12 03:59:58;;;;;;;20.38;16.33;;;;;;;;;;5033662;28;20406;-80
2021/08/12 04:02:24;;;;;;;20.33;16.08;;;;;;;;;;5033308;28;20029;-82
2021/08/12 04:04:49;;;;;;;18.73;15.45;;;;;;;;;;5033617;28;20044;-82
2021/08/12 04:07:15;;;;;;;16.58;14.90;;;;;;;;;;5033671;28;20025;-82
2021/08/12 04:09:41;;;;;;;15.82;13.88;;;;;;;;;;5033971;28;20037;-81
2021/08/12 04:12:06;;;;;;;18.90;13.90;;;;;;;;;;5033495;28;20087;-82
2021/08/12 04:14:32;;;;;;;16.00;13.35;;;;;;;;;;5033403;28;20029;-81
2021/08/12 04:16:58;;;;;;;15.07;13.43;;;;;;;;;;5034444;28;20395;-81
2021/08/12 04:19:25;;;;;;;19.88;15.40;;;;;;;;;;5032485;28;20033;-81
2021/08/12 04:21:51;;;;;;;20.02;15.50;;;;;;;;;;5032443;28;20025;-80
2021/08/12 04:24:16;;;;;;;17.00;15.00;;;;;;;;;;5032029;28;20518;-82
2021/08/12 04:26:42;;;;;;;16.70;14.60;;;;;;;;;;5032567;28;20033;-84
2021/08/12 04:29:08;;;;;;;17.15;12.70;;;;;;;;;;5035525;28;20040;-81
2021/08/12 04:31:34;;;;;;;14.43;12.75;;;;;;;;;;5036855;28;20036;-80
2021/08/12 04:33:59;;;;;;;17.70;13.45;;;;;;;;;;5035878;28;20096;-81
2021/08/12 04:36:25;;;;;;;18.55;13.73;;;;;;;;;;5035981;28;20423;-80
2021/08/12 04:38:51;;;;;;;17.30;12.40;;;;;;;;;;5035932;28;20120;-81
2021/08/12 04:41:16;;;;;;;16.60;11.48;;;;;;;;;;5035912;28;20033;-81
2021/08/12 04:43:42;;;;;;;13.40;11.30;;;;;;;;;;5034984;28;20044;-82
2021/08/12 04:46:07;;;;;;;17.27;12.20;;;;;;;;;;5036125;28;20057;-80
2021/08/12 04:48:33;;;;;;;26.55;15.80;;;;;;;;;;5018177;28;20041;-81
2021/08/12 04:50:58;;;;;;;33.15;17.15;;;;;;;;;;5036142;28;20038;-81
2021/08/12 04:53:24;;;;;;;24.33;16.77;;;;;;;;;;5035525;28;20399;-80
2021/08/12 04:55:49;;;;;;;24.65;17.73;;;;;;;;;;5036182;28;20037;-81
2021/08/12 04:58:15;;;;;;;26.13;16.25;;;;;;;;;;5035414;28;20042;-81
2021/08/12 05:00:41;;;;;;;22.05;17.05;;;;;;;;;;5035498;28;20036;-81
2021/08/12 05:03:06;;;;;;;21.33;16.60;;;;;;;;;;5035331;28;20116;-82
2021/08/12 05:05:33;;;;;;;25.58;18.90;;;;;;;;;;5035402;28;20399;-82
2021/08/12 05:07:58;;;;;;;20.65;16.77;;;;;;;;;;5035313;28;20036;-81
2021/08/12 05:10:24;;;;;;;21.00;16.60;;;;;;;;;;5034907;28;20029;-81
2021/08/12 05:12:52;;;;;;;22.50;18.17;;;;;;;;;;5035055;28;20152;-81
2021/08/12 05:15:18;;;;;;;24.63;18.20;;;;;;;;;;5035232;28;20029;-81
2021/08/12 05:17:43;;;;;;;21.52;16.02;;;;;;;;;;5035141;28;20121;-82
2021/08/12 05:20:09;;;;;;;20.60;17.30;;;;;;;;;;5017373;28;20044;-82
2021/08/12 05:22:35;;;;;;;22.13;17.67;;;;;;;;;;5034848;28;20026;-81
2021/08/12 05:25:00;;;;;;;22.42;16.30;;;;;;;;;;5034687;28;20037;-82
2021/08/12 05:27:26;;;;;;;22.83;16.67;;;;;;;;;;5035414;28;20071;-82
2021/08/12 05:29:52;;;;;;;18.70;16.58;;;;;;;;;;5035127;28;20029;-83
2021/08/12 05:32:18;;;;;;;19.50;14.75;;;;;;;;;;5034549;28;20040;-82
2021/08/12 05:34:43;;;;;;;18.40;15.45;;;;;;;;;;5035213;28;20529;-82
2021/08/12 05:37:09;;;;;;;21.60;17.00;;;;;;;;;;5024170;28;20041;-82
2021/08/12 05:39:34;;;;;;;21.70;15.32;;;;;;;;;;5024912;28;20045;-81
2021/08/12 05:42:00;;;;;;;18.10;14.55;;;;;;;;;;5034574;28;20395;-82
2021/08/12 05:44:26;;;;;;;18.60;15.55;;;;;;;;;;5036901;28;20037;-82
2021/08/12 05:46:52;;;;;;;20.38;14.77;;;;;;;;;;5036897;28;20112;-82
2021/08/12 05:49:22;;;;;;;18.27;15.60;;;;;;;;;;5037135;28;20487;-81
2021/08/12 05:51:48;;;;;;;18.88;14.30;;;;;;;;;;5036846;28;20029;-81
2021/08/12 05:54:14;;;;;;;17.08;13.10;;;;;;;;;;5036751;28;20030;-80
2021/08/12 05:56:39;;;;;;;17.38;12.70;;;;;;;;;;5037151;28;20080;-82
2021/08/12 05:59:05;;;;;;;19.65;10.85;;;;;;;;;;5036753;28;20037;-83
2021/08/12 06:01:31;;;;;;;14.32;11.63;;;;;;;;;;5019192;28;20129;-82
2021/08/12 06:03:57;;;;;;;11.40;10.20;;;;;;;;;;5036846;28;20076;-82
2021/08/12 06:06:23;;;;;;;13.23;10.38;;;;;;;;;;5037109;28;20029;-82
2021/08/12 06:08:48;;;;;;;11.85;9.60;;;;;;;;;;5036187;28;20155;-82
2021/08/12 06:11:14;;;;;;;15.25;11.48;;;;;;;;;;5036346;28;20431;-82
2021/08/12 06:13:39;;;;;;;13.93;10.70;;;;;;;;;;5036708;28;20029;-81
2021/08/12 06:16:06;;;;;;;15.88;11.15;;;;;;;;;;5034691;28;20479;-83
2021/08/12 06:18:32;;;;;;;13.15;10.52;;;;;;;;;;5019259;28;20055;-82
2021/08/12 06:20:57;;;;;;;13.05;10.27;;;;;;;;;;5037372;28;20038;-84
2021/08/12 06:23:23;;;;;;;14.98;10.93;;;;;;;;;;5037064;28;20026;-82
2021/08/12 06:25:49;;;;;;;21.67;12.60;;;;;;;;;;5036673;28;20142;-82
2021/08/12 06:28:14;;;;;;;14.93;11.88;;;;;;;;;;5037142;28;20025;-83
2021/08/12 06:30:40;;;;;;;13.63;12.07;;;;;;;;;;5036672;28;20395;-83
2021/08/12 06:33:06;;;;;;;17.77;13.23;;;;;;;;;;5036784;28;20044;-82
2021/08/12 06:35:34;;;;;;;16.05;13.25;;;;;;;;;;5036243;28;20029;-82
2021/08/12 06:38:00;;;;;;;16.20;12.50;;;;;;;;;;5036473;28;20080;-82
2021/08/12 06:40:25;;;;;;;19.42;11.68;;;;;;;;;;5037682;28;20037;-81
2021/08/12 06:42:54;;;;;;;14.32;12.10;;;;;;;;;;5053192;28;20488;-81
2021/08/12 06:45:20;;;;;;;14.50;12.20;;;;;;;;;;5051765;28;20020;-81
2021/08/12 06:47:46;;;;;;;16.75;12.10;;;;;;;;;;5035609;28;20475;-81
2021/08/12 06:50:13;;;;;;;14.10;12.20;;;;;;;;;;5034488;28;20479;-81
2021/08/12 06:52:38;;;;;;;17.27;11.70;;;;;;;;;;5034967;28;20033;-81
2021/08/12 06:55:05;;;;;;;16.08;11.10;;;;;;;;;;5035949;28;20029;-82
2021/08/12 06:57:30;;;;;;;13.82;11.70;;;;;;;;;;5035374;28;20033;-81
2021/08/12 06:59:56;;;;;;;22.40;12.25;;;;;;;;;;5035068;28;20413;-80
2021/08/12 07:02:21;;;;;;;17.00;13.52;;;;;;;;;;5034527;28;20033;-80
2021/08/12 07:04:47;;;;;;;15.95;11.90;;;;;;;;;;5035080;28;20025;-82
2021/08/12 07:07:12;;;;;;;21.35;12.35;;;;;;;;;;5034991;28;20032;-84
2021/08/12 07:09:39;;;;;;;12.63;11.05;;;;;;;;;;5035825;28;20304;-84
2021/08/12 07:12:05;;;;;;;19.05;11.73;;;;;;;;;;5026036;28;20060;-82
2021/08/12 07:14:31;;;;;;;13.35;10.52;;;;;;;;;;5040871;28;20030;-84
2021/08/12 07:16:57;;;;;;;16.52;11.77;;;;;;;;;;5043221;28;20502;-82
2021/08/12 07:19:23;;;;;;;15.40;10.48;;;;;;;;;;5038932;28;20032;-81
2021/08/12 07:36:42;;;;;;;17.80;11.20;;;;;;;;;;5133579;27;20657;-85
2021/08/12 07:39:08;;;;;;;16.27;10.82;;;;;;;;;;5133439;28;20156;-84
2021/08/12 07:41:34;;;;;;;20.80;12.40;;;;;;;;;;5134557;27;20074;-84
2021/08/12 07:44:03;;;;;;;13.70;10.90;;;;;;;;;;5134145;27;20020;-84
2021/08/12 07:46:29;;;;;;;17.23;11.52;;;;;;;;;;5133734;27;20035;-82
2021/08/12 07:48:55;;;;;;;17.88;12.35;;;;;;;;;;5136910;27;20027;-84
2021/08/12 07:51:23;;;;;;;12.95;11.55;;;;;;;;;;5134017;27;20087;-85
2021/08/12 07:53:50;;;;;;;15.70;11.10;;;;;;;;;;5134414;27;20106;-84
2021/08/12 07:56:15;;;;;;;14.30;11.10;;;;;;;;;;5133752;27;20081;-84
2021/08/12 07:58:41;;;;;;;13.48;10.32;;;;;;;;;;5133947;27;20031;-85
2021/08/12 08:01:07;;;;;;;13.57;10.65;;;;;;;;;;5134098;27;20468;-85
2021/08/12 08:03:32;;;;;;;14.45;10.30;;;;;;;;;;5133218;27;20485;-85
2021/08/12 08:06:00;;;;;;;13.35;9.55;;;;;;;;;;5131882;28;20445;-85
2021/08/12 08:08:26;;;;;;;13.02;10.73;;;;;;;;;;5133589;27;20034;-85
2021/08/12 08:10:52;;;;;;;10.45;9.30;;;;;;;;;;5134851;27;20027;-85
2021/08/12 08:13:17;;;;;;;13.95;10.90;;;;;;;;;;5132313;28;20050;-84
2021/08/12 08:15:43;;;;;;;15.52;10.63;;;;;;;;;;5133334;27;20035;-83
2021/08/12 08:18:08;;;;;;;18.30;9.73;;;;;;;;;;5131958;28;20558;-85
2021/08/12 08:20:34;;;;;;;14.18;10.82;;;;;;;;;;5133656;27;20384;-85
2021/08/12 08:23:10;;;;;;;19.33;10.60;;;;;;;;;;5132561;28;20023;-82
2021/08/12 08:25:36;;;;;;;11.32;10.07;;;;;;;;;;5127377;28;20032;-84
2021/08/12 08:28:03;;;;;;;19.42;10.10;;;;;;;;;;5113516;28;20482;-84
2021/08/12 08:30:29;;;;;;;15.10;10.48;;;;;;;;;;5124756;28;20115;-84
2021/08/12 08:32:55;;;;;;;17.67;10.02;;;;;;;;;;5132230;27;20442;-83
2021/08/12 08:35:23;;;;;;;17.13;11.30;;;;;;;;;;5129724;27;20214;-83
2021/08/12 08:37:49;;;;;;;11.98;9.27;;;;;;;;;;5118471;28;20441;-84
2021/08/12 08:40:15;;;;;;;14.50;10.85;;;;;;;;;;5119461;28;20100;-83
2021/08/12 08:42:41;;;;;;;13.88;9.85;;;;;;;;;;5116904;28;20032;-84
2021/08/12 08:45:08;;;;;;;21.60;9.57;;;;;;;;;;5119488;28;20035;-85
2021/08/12 08:47:34;;;;;;;13.73;9.88;;;;;;;;;;5119806;28;20038;-86
2021/08/12 08:50:00;;;;;;;16.58;9.38;;;;;;;;;;5119539;28;20057;-85
2021/08/12 08:52:26;;;;;;;14.35;8.68;;;;;;;;;;5117622;27;20028;-85
2021/08/12 08:54:53;;;;;;;13.00;9.20;;;;;;;;;;5118184;28;20101;-85
2021/08/12 08:57:19;;;;;;;12.93;8.82;;;;;;;;;;5128678;28;20027;-85
2021/08/12 08:59:45;;;;;;;13.05;9.55;;;;;;;;;;5137224;28;20081;-86
2021/08/12 09:02:11;;;;;;;12.52;9.05;;;;;;;;;;5121136;27;20028;-84
2021/08/12 09:04:37;;;;;;;12.90;9.52;;;;;;;;;;5098556;28;20381;-85
2021/08/12 09:07:04;;;;;;;12.70;8.55;;;;;;;;;;5116326;28;20063;-84
2021/08/12 09:09:33;;;;;;;11.85;8.32;;;;;;;;;;5119879;28;20031;-84
2021/08/12 09:12:00;;;;;;;12.07;8.38;;;;;;;;;;5116668;28;20024;-83
2021/08/12 09:14:30;;;;;;;24.25;8.98;;;;;;;;;;5103110;28;20663;-83
2021/08/12 09:16:56;;;;;;;10.65;8.48;;;;;;;;;;5106586;27;20027;-78
2021/08/12 09:19:23;;;;;;;14.70;8.60;;;;;;;;;;5108996;27;20024;-79
2021/08/12 09:21:49;;;;;;;20.10;8.27;;;;;;;;;;5117569;28;20054;-85
2021/08/12 09:24:15;;;;;;;30.48;9.90;;;;;;;;;;5116820;28;20131;-85
2021/08/12 09:26:41;;;;;;;15.52;9.02;;;;;;;;;;5097658;28;20027;-85
2021/08/12 09:29:08;;;;;;;17.58;8.43;;;;;;;;;;5097304;28;20393;-85
2021/08/12 09:31:35;;;;;;;15.30;8.73;;;;;;;;;;5097300;28;20115;-85
2021/08/12 09:34:12;;;;;;;23.85;8.63;;;;;;;;;;5099297;28;20020;-85
2021/08/12 09:36:39;;;;;;;10.85;9.43;;;;;;;;;;5106287;28;20039;-85
2021/08/12 09:39:06;;;;;;;25.75;9.77;;;;;;;;;;5117775;28;20020;-85
2021/08/12 09:41:39;;;;;;;16.38;9.18;;;;;;;;;;5097434;28;20026;-85
2021/08/12 09:44:06;;;;;;;14.05;9.23;;;;;;;;;;5099507;28;20436;-86
2021/08/12 09:46:35;;;;;;;35.22;10.75;;;;;;;;;;5101743;28;20106;-85
2021/08/12 09:49:03;;;;;;;34.40;9.40;;;;;;;;;;5098441;28;20059;-85
2021/08/12 09:51:33;;;;;;;16.48;9.23;;;;;;;;;;5097307;28;20103;-85
2021/08/12 09:54:04;;;;;;;26.73;10.70;;;;;;;;;;5113362;28;20027;-85
2021/08/12 09:56:30;;;;;;;40.38;12.27;;;;;;;;;;5107673;28;20160;-85
2021/08/12 09:59:04;;;;;;;35.42;12.82;;;;;;;;;;5105203;28;20059;-85
2021/08/12 10:01:29;;;;;;;25.00;10.38;;;;;;;;;;5100450;28;20035;-85
2021/08/12 10:03:55;;;;;;;16.58;10.15;;;;;;;;;;5106077;28;20028;-84
2021/08/12 10:06:24;;;;;;;41.80;12.98;;;;;;;;;;5097055;28;20036;-85
2021/08/12 10:08:51;;;;;;;37.17;12.35;;;;;;;;;;5097081;28;20503;-84
2021/08/12 10:11:30;;;;;;;27.80;14.45;;;;;;;;;;5107667;28;20060;-85
2021/08/12 10:14:00;;;;;;;21.40;11.48;;;;;;;;;;5102855;28;20020;-85
2021/08/12 10:16:26;;;;;;;39.13;12.85;;;;;;;;;;5099847;28;20032;-85
2021/08/12 10:18:53;;;;;;;17.08;12.00;;;;;;;;;;5113859;28;20473;-85
2021/08/12 10:21:19;;;;;;;23.05;11.98;;;;;;;;;;5116972;28;20024;-85
2021/08/12 10:23:49;;;;;;;14.50;11.23;;;;;;;;;;5116378;28;20083;-84
2021/08/12 10:26:17;;;;;;;18.77;11.18;;;;;;;;;;5099025;28;20438;-84
2021/08/12 10:28:43;;;;;;;19.40;10.90;;;;;;;;;;5114634;28;20105;-84
2021/08/12 10:31:12;;;;;;;21.67;11.27;;;;;;;;;;5099012;28;20106;-85
2021/08/12 10:33:39;;;;;;;17.27;11.88;;;;;;;;;;5115107;28;20388;-86
2021/08/12 10:36:05;;;;;;;21.02;12.13;;;;;;;;;;5109652;28;20554;-87
2021/08/12 10:38:31;;;;;;;20.35;12.07;;;;;;;;;;5115938;28;20023;-86
2021/08/12 10:40:57;;;;;;;36.47;12.82;;;;;;;;;;5107096;28;20092;-85
2021/08/12 10:43:26;;;;;;;21.08;11.55;;;;;;;;;;5108100;28;20035;-87
2021/08/12 10:45:56;;;;;;;16.92;10.63;;;;;;;;;;5110673;28;20462;-85
2021/08/12 10:48:23;;;;;;;22.50;11.10;;;;;;;;;;5103226;28;20031;-86
2021/08/12 10:51:00;;;;;;;24.67;11.32;;;;;;;;;;5115429;28;20027;-86
2021/08/12 10:53:25;;;;;;;18.33;11.10;;;;;;;;;;5117195;28;20050;-85
2021/08/12 10:55:56;;;;;;;22.00;11.63;;;;;;;;;;5115569;27;20048;-86
2021/08/12 11:00:48;;;;;;;19.83;10.88;;;;;;;;;;5114542;28;20035;-86
2021/08/12 11:03:14;;;;;;;21.95;11.98;;;;;;;;;;5113373;28;20038;-85
2021/08/12 11:05:58;;;;;;;15.10;9.93;;;;;;;;;;5102072;28;20031;-85
2021/08/12 11:08:42;;;;;;;17.98;9.95;;;;;;;;;;5095953;28;20056;-84
2021/08/12 11:11:08;;;;;;;13.48;9.57;;;;;;;;;;5112607;28;20107;-83
2021/08/12 11:13:33;;;;;;;24.63;11.02;;;;;;;;;;5123304;28;20028;-83
2021/08/12 11:15:59;;;;;;;16.90;8.70;;;;;;;;;;5122526;28;20538;-86
2021/08/12 11:18:46;;;;;;;13.95;8.57;;;;;;;;;;5119322;28;20024;-88
2021/08/12 11:21:29;;;;;;;14.05;8.65;;;;;;;;;;5115652;28;20023;-85
2021/08/12 11:24:05;;;;;;;13.30;7.90;;;;;;;;;;5114147;28;20111;-88
2021/08/12 11:26:46;;;;;;;19.92;9.05;;;;;;;;;;5115529;28;20027;-89
2021/08/12 11:31:50;;;;;;;15.07;9.10;;;;;;;;;;5095845;28;20020;-87
2021/08/12 11:34:17;;;;;;;14.68;9.05;;;;;;;;;;5094716;28;20499;-89
2021/08/12 11:37:01;;;;;;;27.05;9.60;;;;;;;;;;5099261;28;20036;-90
2021/08/12 11:39:27;;;;;;;20.25;9.32;;;;;;;;;;5105907;28;20422;-89
2021/08/12 11:41:52;;;;;;;17.67;9.27;;;;;;;;;;5099757;28;20044;-88
2021/08/12 11:44:18;;;;;;;19.88;10.00;;;;;;;;;;5108662;28;20031;-89
2021/08/12 11:46:44;;;;;;;15.88;8.82;;;;;;;;;;5106299;28;20020;-89
2021/08/12 11:49:14;;;;;;;13.85;8.27;;;;;;;;;;5104770;28;20020;-91
2021/08/12 11:51:40;;;;;;;9.20;7.60;;;;;;;;;;5121510;28;20435;-87
2021/08/12 11:54:05;;;;;;;13.15;8.48;;;;;;;;;;5116532;28;20040;-88
2021/08/12 11:56:35;;;;;;;16.83;8.32;;;;;;;;;;5120892;28;20472;-91
2021/08/12 11:59:01;;;;;;;26.40;10.45;;;;;;;;;;5123928;28;20011;-89
2021/08/12 12:01:30;;;;;;;15.27;9.18;;;;;;;;;;5115261;28;20019;-89
2021/08/12 12:04:06;;;;;;;18.70;10.25;;;;;;;;;;5122904;28;20020;-89
2021/08/12 12:06:44;;;;;;;18.77;10.40;;;;;;;;;;5123798;28;20104;-87
2021/08/12 12:09:30;;;;;;;19.88;10.00;;;;;;;;;;5118277;28;20058;-89
2021/08/12 12:12:00;;;;;;;14.88;9.50;;;;;;;;;;5105034;28;20501;-88
2021/08/12 12:14:28;;;;;;;23.75;11.57;;;;;;;;;;5123904;28;20050;-89
2021/08/12 12:17:07;;;;;;;18.58;9.70;;;;;;;;;;5106702;28;20040;-88
2021/08/12 12:19:33;;;;;;;15.13;10.30;;;;;;;;;;5101627;28;20032;-88
2021/08/12 12:21:59;;;;;;;17.38;9.98;;;;;;;;;;5105540;28;20059;-87
2021/08/12 12:24:56;;;;;;;20.58;11.02;;;;;;;;;;5103978;28;20027;-87
2021/08/12 12:27:23;;;;;;;17.00;10.95;;;;;;;;;;5110295;28;20031;-86
2021/08/12 12:29:49;;;;;;;17.58;10.55;;;;;;;;;;5114032;28;20016;-88
2021/08/12 12:32:19;;;;;;;20.08;10.93;;;;;;;;;;5104754;28;20513;-86
2021/08/12 12:34:48;;;;;;;19.50;11.93;;;;;;;;;;5106031;27;20193;-86
2021/08/12 12:37:14;;;;;;;21.63;11.15;;;;;;;;;;5111065;28;20031;-87
2021/08/12 12:39:41;;;;;;;20.65;12.57;;;;;;;;;;5100010;28;20403;-89
2021/08/12 12:42:08;;;;;;;22.67;11.90;;;;;;;;;;5116635;28;20023;-87
2021/08/12 12:44:34;;;;;;;37.25;12.77;;;;;;;;;;5116634;28;20030;-86
2021/08/12 12:47:20;;;;;;;25.20;12.65;;;;;;;;;;5114967;28;20046;-89
2021/08/12 12:49:46;;;;;;;28.20;12.50;;;;;;;;;;5108383;28;20035;-88
2021/08/12 12:52:12;;;;;;;26.85;11.70;;;;;;;;;;5108362;28;20035;-88
2021/08/12 12:54:38;;;;;;;18.30;11.85;;;;;;;;;;5105517;28;20044;-87
2021/08/12 12:57:04;;;;;;;19.35;11.52;;;;;;;;;;5104278;28;20024;-88
2021/08/12 12:59:29;;;;;;;24.23;11.50;;;;;;;;;;5103690;28;20024;-86
2021/08/12 13:01:59;;;;;;;23.58;11.48;;;;;;;;;;5105917;28;20031;-87
2021/08/12 13:04:24;;;;;;;54.85;15.30;;;;;;;;;;5106163;28;20033;-87
2021/08/12 13:06:51;;;;;;;29.00;13.43;;;;;;;;;;5106220;28;20522;-86
2021/08/12 13:09:30;;;;;;;28.48;13.25;;;;;;;;;;5116629;28;20393;-85
2021/08/12 13:11:56;;;;;;;35.85;13.23;;;;;;;;;;5111798;28;20119;-86
2021/08/12 13:14:32;;;;;;;20.63;12.82;;;;;;;;;;5095760;28;20115;-86
2021/08/12 13:16:57;;;;;;;23.02;13.93;;;;;;;;;;5094173;28;20028;-87
2021/08/12 13:19:24;;;;;;;15.35;12.30;;;;;;;;;;5095312;28;20024;-87
2021/08/12 13:21:54;;;;;;;36.35;13.95;;;;;;;;;;5098218;28;20039;-87
2021/08/12 13:24:20;;;;;;;18.42;12.93;;;;;;;;;;5099703;28;20028;-87
2021/08/12 13:26:55;;;;;;;25.75;12.52;;;;;;;;;;5096784;28;20101;-86
2021/08/12 13:29:27;;;;;;;18.65;12.85;;;;;;;;;;5095508;28;20024;-88
2021/08/12 13:32:01;;;;;;;32.35;13.07;;;;;;;;;;5095823;28;20034;-88
2021/08/12 13:34:27;;;;;;;39.58;13.38;;;;;;;;;;5094179;28;20127;-88
2021/08/12 13:36:52;;;;;;;28.00;13.15;;;;;;;;;;5095552;28;20063;-88
2021/08/12 13:39:18;;;;;;;22.63;13.23;;;;;;;;;;5096597;28;20525;-87
2021/08/12 13:41:44;;;;;;;21.00;13.85;;;;;;;;;;5095191;28;20020;-87
2021/08/12 13:44:10;;;;;;;19.50;13.90;;;;;;;;;;5094974;28;20122;-87
2021/08/12 13:46:35;;;;;;;18.30;13.02;;;;;;;;;;5096995;28;20066;-87
2021/08/12 13:49:03;;;;;;;19.33;15.05;;;;;;;;;;5097024;28;20470;-87
2021/08/12 13:51:30;;;;;;;21.55;14.43;;;;;;;;;;5099312;28;20489;-86
2021/08/12 13:53:57;;;;;;;19.50;14.88;;;;;;;;;;5106733;28;20109;-84
2021/08/12 13:56:23;;;;;;;26.52;16.58;;;;;;;;;;5110566;28;20040;-87
2021/08/12 13:58:48;;;;;;;20.08;15.38;;;;;;;;;;5100659;28;20028;-87
2021/08/12 14:01:14;;;;;;;20.33;15.88;;;;;;;;;;5095605;28;20024;-87
2021/08/12 14:03:39;;;;;;;21.75;16.92;;;;;;;;;;5097474;28;20031;-88
2021/08/12 14:06:05;;;;;;;23.02;16.73;;;;;;;;;;5101630;28;20055;-86
2021/08/12 14:08:31;;;;;;;24.13;16.27;;;;;;;;;;5103160;28;20043;-86
2021/08/12 14:10:56;;;;;;;29.25;22.13;;;;;;;;;;5099717;28;20103;-86
2021/08/12 14:13:22;;;;;;;22.20;17.13;;;;;;;;;;5096762;28;20035;-87
2021/08/12 14:15:48;;;;;;;23.10;17.27;;;;;;;;;;5096079;28;20040;-87
2021/08/12 14:18:13;;;;;;;19.30;17.23;;;;;;;;;;5096631;28;20035;-86
2021/08/12 14:20:39;;;;;;;25.08;18.35;;;;;;;;;;5095367;28;20466;-87
2021/08/12 14:23:05;;;;;;;24.45;18.65;;;;;;;;;;5096483;28;20111;-86
2021/08/12 14:25:30;;;;;;;24.80;17.38;;;;;;;;;;5095689;28;20130;-88
2021/08/12 14:27:56;;;;;;;23.10;18.63;;;;;;;;;;5095419;28;20027;-88
2021/08/12 14:30:21;;;;;;;21.25;18.40;;;;;;;;;;5095905;28;20492;-89
2021/08/12 14:32:47;;;;;;;27.02;20.00;;;;;;;;;;5094038;28;20028;-87
2021/08/12 14:35:12;;;;;;;21.17;18.92;;;;;;;;;;5092719;28;20456;-87
2021/08/12 14:37:38;;;;;;;22.85;18.65;;;;;;;;;;5093680;28;20080;-88
2021/08/12 14:40:05;;;;;;;25.42;18.67;;;;;;;;;;5096499;28;20028;-88